Terminal Aerodrome Forecast
Issued by NWS Upton, NY

Home | Current Version | Previous Version | Text Only | Print | Product List | Glossary On
Versions: 1 2 3 4 5 6 7 8 9 10 11 12 13 14 15 16 17 18 19 20 21 22 23 24 25 26 27 28 29 30 31 32 33 34 35 36
227
FTUS41 KOKX 222031 AAB
TAFBDR
TAF AMD
KBDR 222031Z 2221/2318 08010KT P6SM BKN030 OVC080
      TEMPO 2221/2223 1SM BR BKN012
     FM230000 06013G20KT 5SM BR OVC010
     FM230300 05014G23KT 6SM BR OVC010
     FM230900 05018G28KT 5SM BR OVC010
     FM231500 03028G40KT 3SM RA BR OVC010=

USA.gov is the U.S. government's official web portal to all federal, state and local government web resources and services.